Time;durP1;ratioP1;P1;durP2;ratioP2;P2;SDS_P1;SDS_P2;PMS_P1;PMS_P2;Temp;Humidity;BMP_temperature;BMP_pressure;BME280_temperature;BME280_humidity;BME280_pressure;Samples;Min_cycle;Max_cycle;Signal;HPM_P1;HPM_P2
2022/04/05 00:00:47;;;;;;;10.03;9.13;;;;;;;;;;5081740;28;20237;-73
2022/04/05 00:03:12;;;;;;;11.73;9.97;;;;;;;;;;5088114;27;20180;-73
2022/04/05 00:05:37;;;;;;;10.47;9.43;;;;;;;;;;5088285;28;20197;-73
2022/04/05 00:08:02;;;;;;;10.37;9.30;;;;;;;;;;5090993;28;20185;-73
2022/04/05 00:10:28;;;;;;;10.10;9.20;;;;;;;;;;5088020;28;20187;-73
2022/04/05 00:12:53;;;;;;;9.43;8.47;;;;;;;;;;5084637;28;20211;-73
2022/04/05 00:15:18;;;;;;;9.10;8.30;;;;;;;;;;5085604;28;20220;-73
2022/04/05 00:17:43;;;;;;;8.83;7.93;;;;;;;;;;5088197;28;20181;-73
2022/04/05 00:20:09;;;;;;;8.60;7.80;;;;;;;;;;5092909;28;20484;-73
2022/04/05 00:22:34;;;;;;;9.33;8.43;;;;;;;;;;5088675;28;20196;-73
2022/04/05 00:25:00;;;;;;;10.60;9.53;;;;;;;;;;5080144;28;20177;-73
2022/04/05 00:27:25;;;;;;;8.60;7.63;;;;;;;;;;5085339;28;20198;-73
2022/04/05 00:29:50;;;;;;;9.57;8.67;;;;;;;;;;5083679;28;20189;-73
2022/04/05 00:32:15;;;;;;;9.60;8.77;;;;;;;;;;5082935;28;20165;-73
2022/04/05 00:34:40;;;;;;;9.17;8.30;;;;;;;;;;5081058;28;20216;-73
2022/04/05 00:37:06;;;;;;;8.70;7.90;;;;;;;;;;5079968;28;20173;-73
2022/04/05 00:39:32;;;;;;;10.40;9.33;;;;;;;;;;5087282;28;20184;-73
2022/04/05 00:41:57;;;;;;;8.43;7.63;;;;;;;;;;5086553;28;20452;-74
2022/04/05 00:44:23;;;;;;;10.13;7.17;;;;;;;;;;5092547;28;20179;-74
2022/04/05 00:46:49;;;;;;;9.57;8.10;;;;;;;;;;5083386;28;20205;-73
2022/04/05 00:49:16;;;;;;;8.77;7.83;;;;;;;;;;5086510;28;20172;-73
2022/04/05 00:51:41;;;;;;;8.43;7.57;;;;;;;;;;5086429;28;20188;-73
2022/04/05 00:54:07;;;;;;;8.87;8.00;;;;;;;;;;5088490;28;20208;-73
2022/04/05 00:56:36;;;;;;;8.10;7.33;;;;;;;;;;5085925;28;20173;-73
2022/04/05 00:59:02;;;;;;;8.93;7.77;;;;;;;;;;5087620;28;20226;-73
2022/04/05 01:01:28;;;;;;;8.77;7.87;;;;;;;;;;5077667;28;20172;-74
2022/04/05 01:03:53;;;;;;;7.57;6.73;;;;;;;;;;5081743;28;20227;-74
2022/04/05 01:06:22;;;;;;;9.17;8.23;;;;;;;;;;5082009;28;20184;-73
2022/04/05 01:08:48;;;;;;;8.67;7.77;;;;;;;;;;5085596;28;20203;-73
2022/04/05 01:11:13;;;;;;;7.83;7.13;;;;;;;;;;5084988;28;20212;-74
2022/04/05 01:13:38;;;;;;;7.70;7.00;;;;;;;;;;5087771;28;20218;-74
2022/04/05 01:16:04;;;;;;;9.60;7.07;;;;;;;;;;5080884;28;20640;-73
2022/04/05 01:18:29;;;;;;;7.77;7.00;;;;;;;;;;5088939;28;20360;-73
2022/04/05 01:20:56;;;;;;;8.13;7.40;;;;;;;;;;5080346;28;20176;-74
2022/04/05 01:23:22;;;;;;;6.47;5.97;;;;;;;;;;5089636;28;20180;-74
2022/04/05 01:25:47;;;;;;;8.37;7.67;;;;;;;;;;5084564;28;20196;-74
2022/04/05 01:28:12;;;;;;;9.10;8.17;;;;;;;;;;5083646;28;20176;-74
2022/04/05 01:30:38;;;;;;;7.30;6.60;;;;;;;;;;5085968;28;20180;-74
2022/04/05 01:33:03;;;;;;;7.70;6.93;;;;;;;;;;5084241;28;20260;-74
2022/04/05 01:35:28;;;;;;;7.87;7.07;;;;;;;;;;5085143;28;20183;-74
2022/04/05 01:37:53;;;;;;;7.47;6.77;;;;;;;;;;5085372;28;20173;-73
2022/04/05 01:40:18;;;;;;;8.57;7.67;;;;;;;;;;5090233;28;20178;-74
2022/04/05 01:42:44;;;;;;;8.07;7.37;;;;;;;;;;5090144;28;20181;-74
2022/04/05 01:45:09;;;;;;;9.23;7.87;;;;;;;;;;5090127;28;20173;-74
2022/04/05 01:47:34;;;;;;;7.63;6.87;;;;;;;;;;5089363;28;20176;-74
2022/04/05 01:49:59;;;;;;;9.23;8.33;;;;;;;;;;5081380;28;20307;-74
2022/04/05 01:52:25;;;;;;;9.90;9.00;;;;;;;;;;5088781;28;20168;-74
2022/04/05 01:54:50;;;;;;;8.83;8.03;;;;;;;;;;5087520;28;20215;-74
2022/04/05 01:57:15;;;;;;;9.53;7.80;;;;;;;;;;5092214;28;20180;-74
2022/04/05 01:59:41;;;;;;;8.23;7.43;;;;;;;;;;5089805;28;20227;-74
2022/04/05 02:02:07;;;;;;;6.83;6.13;;;;;;;;;;5084854;28;20177;-74
2022/04/05 02:04:32;;;;;;;8.57;7.67;;;;;;;;;;5088741;28;20341;-74
2022/04/05 02:06:58;;;;;;;8.27;7.30;;;;;;;;;;5090381;28;20352;-74
2022/04/05 02:09:23;;;;;;;6.50;5.90;;;;;;;;;;5089017;28;20180;-74
2022/04/05 02:11:48;;;;;;;7.67;6.97;;;;;;;;;;5090266;28;20172;-74
2022/04/05 02:14:14;;;;;;;9.43;8.47;;;;;;;;;;5086780;28;20201;-74
2022/04/05 02:16:40;;;;;;;8.40;7.60;;;;;;;;;;5093080;28;20516;-74
2022/04/05 02:19:05;;;;;;;8.37;7.60;;;;;;;;;;5093106;28;20187;-74
2022/04/05 02:21:30;;;;;;;8.77;7.87;;;;;;;;;;5088533;28;20173;-74
2022/04/05 02:23:55;;;;;;;8.60;7.80;;;;;;;;;;5088262;28;20208;-74
2022/04/05 02:26:21;;;;;;;8.57;7.77;;;;;;;;;;5090182;28;20180;-74
2022/04/05 02:28:47;;;;;;;7.80;7.10;;;;;;;;;;5094640;28;20177;-76
2022/04/05 02:31:13;;;;;;;9.03;8.13;;;;;;;;;;5095852;28;20188;-76
2022/04/05 02:33:38;;;;;;;6.87;6.17;;;;;;;;;;5086452;28;20213;-76
2022/04/05 02:36:03;;;;;;;8.20;7.07;;;;;;;;;;5088146;28;20169;-77
2022/04/05 02:38:29;;;;;;;6.93;6.33;;;;;;;;;;5089029;28;20188;-77
2022/04/05 02:40:57;;;;;;;7.23;6.53;;;;;;;;;;5088261;28;20187;-77
2022/04/05 02:43:22;;;;;;;8.13;7.33;;;;;;;;;;5089811;28;20191;-74
2022/04/05 02:45:47;;;;;;;8.67;7.10;;;;;;;;;;5084171;28;20173;-74
2022/04/05 02:48:13;;;;;;;7.80;7.00;;;;;;;;;;5090924;28;20176;-74
2022/04/05 02:50:41;;;;;;;7.43;6.57;;;;;;;;;;5087977;28;20172;-74
2022/04/05 02:53:06;;;;;;;7.37;6.27;;;;;;;;;;5102252;28;20204;-74
2022/04/05 02:55:32;;;;;;;7.17;6.47;;;;;;;;;;5089074;28;20184;-74
2022/04/05 02:57:57;;;;;;;7.47;6.77;;;;;;;;;;5088382;28;20169;-74
2022/04/05 03:00:22;;;;;;;6.47;5.93;;;;;;;;;;5088374;28;20237;-74
2022/04/05 03:02:47;;;;;;;7.93;7.13;;;;;;;;;;5091292;28;20176;-74
2022/04/05 03:05:13;;;;;;;6.57;5.97;;;;;;;;;;5084048;28;20199;-74
2022/04/05 03:07:38;;;;;;;7.70;6.57;;;;;;;;;;5089467;28;20177;-74
2022/04/05 03:10:06;;;;;;;7.23;6.53;;;;;;;;;;5085159;28;20199;-74
2022/04/05 03:12:31;;;;;;;7.17;6.47;;;;;;;;;;5085350;28;20176;-74
2022/04/05 03:14:56;;;;;;;6.72;5.85;;;;;;;;;;5090782;28;20191;-74
2022/04/05 03:17:21;;;;;;;6.73;5.90;;;;;;;;;;5085440;28;20195;-74
2022/04/05 03:19:47;;;;;;;6.90;5.90;;;;;;;;;;5085574;28;20169;-74
2022/04/05 03:22:12;;;;;;;7.53;6.53;;;;;;;;;;5090653;28;20250;-74
2022/04/05 03:24:37;;;;;;;6.70;6.00;;;;;;;;;;5083296;28;20177;-74
2022/04/05 03:27:03;;;;;;;7.10;6.40;;;;;;;;;;5085256;28;20180;-74
2022/04/05 03:29:28;;;;;;;5.73;5.23;;;;;;;;;;5092077;28;20184;-74
2022/04/05 03:31:54;;;;;;;7.67;6.97;;;;;;;;;;5089996;28;20241;-74
2022/04/05 03:34:21;;;;;;;5.43;4.93;;;;;;;;;;5088921;28;20204;-74
2022/04/05 03:36:46;;;;;;;6.83;5.90;;;;;;;;;;5089017;28;20188;-74
2022/04/05 03:39:14;;;;;;;6.70;6.00;;;;;;;;;;5088745;28;20177;-74
2022/04/05 03:41:42;;;;;;;5.70;5.10;;;;;;;;;;5087670;28;20176;-74
2022/04/05 03:44:08;;;;;;;7.27;5.77;;;;;;;;;;5087248;28;20203;-74
2022/04/05 03:46:33;;;;;;;7.60;6.43;;;;;;;;;;5089916;28;20184;-74
2022/04/05 03:48:59;;;;;;;7.17;5.90;;;;;;;;;;5082341;28;20193;-73
2022/04/05 03:51:24;;;;;;;7.77;6.23;;;;;;;;;;5083923;28;20172;-74
2022/04/05 03:53:49;;;;;;;7.63;5.63;;;;;;;;;;5085679;28;20216;-74
2022/04/05 03:56:14;;;;;;;6.07;5.33;;;;;;;;;;5088169;28;20181;-74
2022/04/05 03:58:39;;;;;;;5.97;5.37;;;;;;;;;;5082255;28;20173;-74
2022/04/05 04:01:04;;;;;;;9.27;5.30;;;;;;;;;;5083633;28;20424;-74
2022/04/05 04:03:30;;;;;;;5.63;4.77;;;;;;;;;;5085270;28;20184;-74
2022/04/05 04:05:55;;;;;;;5.40;4.33;;;;;;;;;;5090461;28;20236;-74
2022/04/05 04:08:20;;;;;;;6.83;6.13;;;;;;;;;;5082158;28;20172;-74
2022/04/05 04:10:48;;;;;;;7.10;5.57;;;;;;;;;;5085713;28;20176;-74
2022/04/05 04:13:14;;;;;;;7.37;6.07;;;;;;;;;;5081192;28;20201;-74
2022/04/05 04:15:39;;;;;;;6.73;5.57;;;;;;;;;;5087272;28;20227;-74
2022/04/05 04:18:04;;;;;;;5.43;4.13;;;;;;;;;;5090969;28;20236;-74
2022/04/05 04:20:29;;;;;;;6.03;5.43;;;;;;;;;;5080130;28;20176;-73
2022/04/05 04:22:54;;;;;;;8.93;6.33;;;;;;;;;;5090720;28;20238;-74
2022/04/05 04:25:19;;;;;;;6.57;5.70;;;;;;;;;;5087069;28;20179;-73
2022/04/05 04:27:45;;;;;;;7.57;5.80;;;;;;;;;;5086241;28;20245;-74
2022/04/05 04:30:10;;;;;;;6.73;5.27;;;;;;;;;;5086600;28;20185;-73
2022/04/05 04:32:36;;;;;;;9.23;5.80;;;;;;;;;;5090940;28;20264;-74
2022/04/05 04:35:01;;;;;;;4.93;4.53;;;;;;;;;;5087316;28;20169;-74
2022/04/05 04:37:26;;;;;;;6.10;5.33;;;;;;;;;;5088848;28;20169;-74
2022/04/05 04:39:51;;;;;;;5.10;4.47;;;;;;;;;;5085108;28;20469;-73
2022/04/05 04:42:17;;;;;;;7.93;5.67;;;;;;;;;;5086461;28;20183;-73
2022/04/05 04:44:42;;;;;;;6.37;5.67;;;;;;;;;;5086391;28;20181;-74
2022/04/05 04:47:07;;;;;;;5.03;4.53;;;;;;;;;;5090275;28;20184;-74
2022/04/05 04:49:32;;;;;;;10.33;5.23;;;;;;;;;;5082541;28;20188;-73
2022/04/05 04:51:58;;;;;;;5.90;5.40;;;;;;;;;;5092200;28;20180;-74
2022/04/05 04:54:23;;;;;;;5.20;4.70;;;;;;;;;;5082775;28;20205;-74
2022/04/05 04:56:48;;;;;;;6.53;5.30;;;;;;;;;;5086314;28;20173;-74
2022/04/05 04:59:13;;;;;;;5.03;4.63;;;;;;;;;;5088256;28;20175;-74
2022/04/05 05:01:38;;;;;;;5.50;4.70;;;;;;;;;;5082553;28;20181;-75
2022/04/05 05:04:03;;;;;;;7.13;4.90;;;;;;;;;;5087093;28;20195;-74
2022/04/05 05:06:29;;;;;;;5.67;4.37;;;;;;;;;;5078435;28;20180;-74
2022/04/05 05:08:54;;;;;;;4.90;4.37;;;;;;;;;;5082052;28;20216;-75
2022/04/05 05:11:20;;;;;;;5.80;4.30;;;;;;;;;;5083423;28;20185;-74
2022/04/05 05:13:45;;;;;;;5.70;5.20;;;;;;;;;;5079582;28;20194;-74
2022/04/05 05:16:10;;;;;;;4.80;4.30;;;;;;;;;;5095069;28;20208;-75
2022/04/05 05:18:37;;;;;;;4.67;4.13;;;;;;;;;;5094662;28;20247;-75
2022/04/05 05:21:03;;;;;;;5.20;4.70;;;;;;;;;;5087562;28;20192;-75
2022/04/05 05:23:28;;;;;;;5.10;4.60;;;;;;;;;;5089414;28;20180;-75
2022/04/05 05:25:53;;;;;;;6.30;5.33;;;;;;;;;;5085545;28;20337;-75
2022/04/05 05:28:18;;;;;;;5.33;4.83;;;;;;;;;;5090050;28;20177;-75
2022/04/05 05:30:43;;;;;;;5.63;5.03;;;;;;;;;;5092251;28;20173;-74
2022/04/05 05:33:09;;;;;;;4.77;4.37;;;;;;;;;;5087467;28;20251;-75
2022/04/05 05:35:34;;;;;;;10.33;4.63;;;;;;;;;;5082975;28;20177;-75
2022/04/05 05:37:59;;;;;;;4.87;4.40;;;;;;;;;;5093918;28;20168;-75
2022/04/05 05:40:24;;;;;;;4.67;4.27;;;;;;;;;;5088451;28;20188;-75
2022/04/05 05:42:51;;;;;;;5.10;3.93;;;;;;;;;;5087956;28;20180;-75
2022/04/05 05:45:16;;;;;;;5.87;4.40;;;;;;;;;;5088066;28;20181;-75
2022/04/05 05:47:41;;;;;;;5.23;4.10;;;;;;;;;;5086821;28;20188;-74
2022/04/05 05:50:06;;;;;;;4.43;4.00;;;;;;;;;;5087671;28;20202;-75
2022/04/05 05:52:32;;;;;;;3.77;3.33;;;;;;;;;;5081947;28;20184;-75
2022/04/05 05:54:57;;;;;;;4.23;3.63;;;;;;;;;;5079193;28;20229;-75
2022/04/05 05:57:22;;;;;;;3.17;2.93;;;;;;;;;;5087967;28;20181;-75
2022/04/05 05:59:47;;;;;;;3.43;3.13;;;;;;;;;;5084569;28;20181;-75
2022/04/05 06:02:12;;;;;;;3.40;3.10;;;;;;;;;;5084745;28;20176;-75
2022/04/05 06:04:37;;;;;;;3.63;3.23;;;;;;;;;;5082617;28;20227;-74
2022/04/05 06:07:03;;;;;;;4.30;3.20;;;;;;;;;;5086781;28;20215;-74
2022/04/05 06:09:28;;;;;;;3.57;3.20;;;;;;;;;;5081531;28;20234;-75
2022/04/05 06:11:53;;;;;;;5.23;4.67;;;;;;;;;;5080512;28;20184;-75
2022/04/05 06:14:18;;;;;;;5.13;4.50;;;;;;;;;;5087645;28;20219;-74
2022/04/05 06:16:44;;;;;;;4.17;3.77;;;;;;;;;;5083601;28;20213;-74
2022/04/05 06:19:09;;;;;;;3.57;3.27;;;;;;;;;;5085465;28;20173;-74
2022/04/05 06:21:34;;;;;;;4.00;3.60;;;;;;;;;;5087009;28;20273;-75
2022/04/05 06:23:59;;;;;;;4.28;3.10;;;;;;;;;;5088813;28;20190;-74
2022/04/05 06:26:24;;;;;;;3.40;3.10;;;;;;;;;;5090102;28;20256;-74
2022/04/05 06:28:49;;;;;;;3.30;2.90;;;;;;;;;;5092612;28;20456;-74
2022/04/05 06:31:15;;;;;;;2.97;2.67;;;;;;;;;;5092099;28;20260;-74
2022/04/05 06:33:40;;;;;;;3.73;3.43;;;;;;;;;;5095950;28;20200;-74
2022/04/05 06:36:05;;;;;;;3.13;2.90;;;;;;;;;;5088853;28;20271;-74
2022/04/05 06:38:30;;;;;;;3.17;2.70;;;;;;;;;;5092086;28;20173;-74
2022/04/05 06:40:56;;;;;;;3.40;3.00;;;;;;;;;;5092388;28;20273;-74
2022/04/05 06:43:24;;;;;;;2.63;2.43;;;;;;;;;;5095551;28;20188;-74
2022/04/05 06:45:49;;;;;;;3.43;2.93;;;;;;;;;;5089147;28;20268;-74
2022/04/05 06:48:15;;;;;;;4.17;2.80;;;;;;;;;;5086266;28;20276;-74
2022/04/05 06:50:40;;;;;;;3.40;2.93;;;;;;;;;;5093570;28;20238;-74
2022/04/05 06:53:06;;;;;;;3.20;2.90;;;;;;;;;;5084543;28;20205;-74
2022/04/05 06:55:32;;;;;;;4.63;4.23;;;;;;;;;;5083391;28;20406;-74
2022/04/05 06:58:00;;;;;;;4.23;3.83;;;;;;;;;;5086167;28;20299;-74
2022/04/05 07:00:26;;;;;;;4.77;4.33;;;;;;;;;;5087996;28;20173;-74
2022/04/05 07:02:52;;;;;;;4.07;3.67;;;;;;;;;;5088249;28;20194;-74
2022/04/05 07:05:17;;;;;;;3.00;2.70;;;;;;;;;;5089941;28;20488;-74
2022/04/05 07:07:43;;;;;;;3.43;3.13;;;;;;;;;;5089092;28;20195;-74
2022/04/05 07:10:09;;;;;;;3.73;3.10;;;;;;;;;;5089117;28;20200;-74
2022/04/05 07:12:35;;;;;;;3.50;3.20;;;;;;;;;;5084814;28;20179;-74
2022/04/05 07:15:00;;;;;;;2.83;2.60;;;;;;;;;;5103981;28;20196;-74
2022/04/05 07:17:27;;;;;;;3.30;3.00;;;;;;;;;;5098459;28;20287;-74
2022/04/05 07:19:52;;;;;;;3.23;2.83;;;;;;;;;;5083110;28;20276;-74
2022/04/05 07:22:19;;;;;;;3.17;2.87;;;;;;;;;;5091529;28;20176;-74
2022/04/05 07:24:45;;;;;;;5.60;3.80;;;;;;;;;;5094550;28;20186;-74
2022/04/05 07:27:10;;;;;;;7.43;4.80;;;;;;;;;;5088856;28;20251;-74
2022/04/05 07:29:35;;;;;;;2.73;2.50;;;;;;;;;;5092701;28;20230;-74
2022/04/05 07:32:01;;;;;;;2.90;2.70;;;;;;;;;;5089203;28;20195;-75
2022/04/05 07:34:26;;;;;;;3.10;2.80;;;;;;;;;;5093706;28;20209;-74
2022/04/05 07:36:52;;;;;;;3.27;2.80;;;;;;;;;;5085951;28;20174;-74
2022/04/05 07:39:19;;;;;;;3.70;3.20;;;;;;;;;;5092293;28;20201;-74
2022/04/05 07:41:44;;;;;;;2.97;2.77;;;;;;;;;;5089441;28;20180;-74
2022/04/05 07:44:09;;;;;;;3.80;3.40;;;;;;;;;;5090769;28;20181;-74
2022/04/05 07:46:35;;;;;;;3.83;3.53;;;;;;;;;;5095872;28;20220;-74
2022/04/05 07:49:00;;;;;;;8.63;6.33;;;;;;;;;;5087977;28;20204;-75
2022/04/05 07:51:26;;;;;;;3.00;2.67;;;;;;;;;;5090489;28;20240;-75
2022/04/05 07:53:51;;;;;;;3.10;2.90;;;;;;;;;;5090150;28;20285;-75
2022/04/05 07:56:16;;;;;;;3.72;3.28;;;;;;;;;;5085681;28;20184;-74
2022/04/05 07:58:44;;;;;;;4.30;3.90;;;;;;;;;;5089260;28;20180;-74
2022/04/05 08:01:10;;;;;;;3.63;3.33;;;;;;;;;;5095438;28;20218;-74
2022/04/05 08:03:36;;;;;;;7.43;5.43;;;;;;;;;;5090348;28;20177;-74
2022/04/05 08:06:01;;;;;;;3.00;2.70;;;;;;;;;;5085508;28;20220;-74
2022/04/05 08:08:27;;;;;;;3.37;2.90;;;;;;;;;;5087408;28;20230;-74
2022/04/05 08:10:52;;;;;;;4.47;3.00;;;;;;;;;;5089059;28;20177;-74
2022/04/05 08:13:17;;;;;;;2.90;2.70;;;;;;;;;;5091822;28;20261;-75
2022/04/05 08:15:43;;;;;;;3.10;2.83;;;;;;;;;;5091812;28;20235;-74
2022/04/05 08:18:11;;;;;;;3.40;2.57;;;;;;;;;;5092783;28;20261;-74
2022/04/05 08:20:39;;;;;;;3.20;2.90;;;;;;;;;;5081508;28;20218;-74
2022/04/05 08:23:04;;;;;;;3.47;3.17;;;;;;;;;;5089776;28;20178;-74
2022/04/05 08:25:30;;;;;;;3.37;2.97;;;;;;;;;;5090942;28;20190;-74
2022/04/05 08:27:55;;;;;;;10.57;9.87;;;;;;;;;;5085360;28;20186;-74
2022/04/05 08:30:20;;;;;;;3.20;2.90;;;;;;;;;;5085211;28;20177;-74
2022/04/05 08:32:46;;;;;;;3.63;3.07;;;;;;;;;;5094011;28;20288;-74
2022/04/05 08:35:13;;;;;;;3.30;3.00;;;;;;;;;;5081587;28;20266;-74
2022/04/05 08:37:39;;;;;;;2.87;2.60;;;;;;;;;;5087368;28;20187;-74
2022/04/05 08:40:06;;;;;;;2.73;2.53;;;;;;;;;;5084194;28;20173;-75
2022/04/05 08:42:35;;;;;;;3.03;2.37;;;;;;;;;;5085124;28;20185;-74
2022/04/05 08:45:02;;;;;;;2.57;2.37;;;;;;;;;;5094395;28;20183;-74
2022/04/05 08:47:27;;;;;;;2.63;2.03;;;;;;;;;;5093100;27;20184;-74
2022/04/05 08:49:53;;;;;;;2.90;2.10;;;;;;;;;;5084170;28;20248;-74
2022/04/05 08:52:18;;;;;;;2.50;2.30;;;;;;;;;;5093784;28;20264;-74
2022/04/05 08:54:43;;;;;;;2.60;2.40;;;;;;;;;;5090565;28;20210;-74
2022/04/05 08:57:09;;;;;;;2.27;2.07;;;;;;;;;;5091778;28;20177;-74
2022/04/05 08:59:34;;;;;;;3.70;2.40;;;;;;;;;;5081471;28;20220;-75
2022/04/05 09:01:59;;;;;;;3.60;2.57;;;;;;;;;;5084795;28;20176;-75
2022/04/05 09:04:31;;;;;;;2.47;2.20;;;;;;;;;;5083318;28;20293;-74
2022/04/05 09:06:56;;;;;;;2.47;1.93;;;;;;;;;;5076629;28;20280;-79
2022/04/05 09:09:28;;;;;;;2.37;2.17;;;;;;;;;;5086817;28;20234;-77
2022/04/05 09:11:53;;;;;;;2.33;2.13;;;;;;;;;;5092736;28;20203;-77
2022/04/05 09:14:29;;;;;;;2.20;2.00;;;;;;;;;;5091036;28;20208;-77
2022/04/05 09:17:05;;;;;;;2.20;2.00;;;;;;;;;;5086281;28;20229;-77
2022/04/05 09:19:38;;;;;;;5.43;4.13;;;;;;;;;;5084681;28;20175;-77
2022/04/05 09:22:04;;;;;;;2.50;2.30;;;;;;;;;;5088647;28;20269;-77
2022/04/05 09:24:32;;;;;;;2.73;2.53;;;;;;;;;;5084235;28;20632;-77
2022/04/05 09:26:58;;;;;;;2.27;2.07;;;;;;;;;;5086644;28;20178;-77
2022/04/05 09:29:36;;;;;;;2.50;2.30;;;;;;;;;;5086594;28;20181;-77
2022/04/05 09:32:01;;;;;;;4.07;2.70;;;;;;;;;;5089173;28;20189;-77
2022/04/05 09:34:26;;;;;;;2.23;2.07;;;;;;;;;;5085046;28;20201;-77
2022/04/05 09:36:51;;;;;;;1.77;1.67;;;;;;;;;;5091523;28;20193;-77
2022/04/05 09:39:18;;;;;;;2.57;2.00;;;;;;;;;;5094344;28;20170;-77
2022/04/05 09:41:44;;;;;;;2.23;1.87;;;;;;;;;;5093197;28;20180;-77
2022/04/05 09:44:09;;;;;;;2.50;2.07;;;;;;;;;;5087575;28;20179;-78
2022/04/05 09:46:36;;;;;;;2.57;2.30;;;;;;;;;;5087770;28;20269;-76
2022/04/05 09:49:06;;;;;;;3.93;2.67;;;;;;;;;;5083832;28;20232;-77
2022/04/05 09:51:35;;;;;;;3.00;2.80;;;;;;;;;;5083826;28;20180;-77
2022/04/05 09:54:00;;;;;;;3.13;2.70;;;;;;;;;;5095188;28;20210;-77
2022/04/05 09:56:30;;;;;;;3.03;2.73;;;;;;;;;;5085070;28;20171;-77
2022/04/05 09:58:56;;;;;;;3.40;3.10;;;;;;;;;;5098349;28;20174;-77
2022/04/05 10:01:23;;;;;;;2.40;2.10;;;;;;;;;;5086912;28;20191;-77
2022/04/05 10:03:57;;;;;;;2.77;2.57;;;;;;;;;;5082001;28;20206;-77
2022/04/05 10:06:22;;;;;;;2.67;2.47;;;;;;;;;;5091383;28;20192;-77
2022/04/05 10:08:48;;;;;;;2.43;2.23;;;;;;;;;;5086313;28;20210;-77
2022/04/05 10:11:16;;;;;;;2.13;1.93;;;;;;;;;;5093959;28;20169;-77
2022/04/05 10:13:41;;;;;;;3.30;2.07;;;;;;;;;;5089920;28;20207;-76
2022/04/05 10:16:08;;;;;;;2.80;2.40;;;;;;;;;;5093171;28;20233;-76
2022/04/05 10:18:34;;;;;;;2.30;2.10;;;;;;;;;;5085218;28;20178;-76
2022/04/05 10:21:00;;;;;;;2.30;2.10;;;;;;;;;;5095361;28;20245;-77
2022/04/05 10:23:25;;;;;;;2.33;2.10;;;;;;;;;;5088306;28;20195;-77
2022/04/05 10:25:52;;;;;;;2.73;2.13;;;;;;;;;;5084403;28;20182;-76
2022/04/05 10:28:19;;;;;;;4.80;2.10;;;;;;;;;;5092822;28;20179;-76
2022/04/05 10:30:50;;;;;;;2.97;2.07;;;;;;;;;;5098170;28;20278;-76
2022/04/05 10:33:28;;;;;;;2.20;2.00;;;;;;;;;;5086831;28;20192;-77
2022/04/05 10:35:54;;;;;;;2.17;2.00;;;;;;;;;;5092332;28;20375;-76
2022/04/05 10:38:20;;;;;;;3.13;2.03;;;;;;;;;;5089148;28;20180;-76
2022/04/05 10:41:03;;;;;;;2.60;2.40;;;;;;;;;;5086594;28;20180;-76
2022/04/05 10:43:29;;;;;;;2.00;1.80;;;;;;;;;;5091512;28;20213;-76
2022/04/05 10:45:54;;;;;;;1.90;1.80;;;;;;;;;;5092880;28;20193;-76
2022/04/05 10:48:25;;;;;;;1.87;1.77;;;;;;;;;;5092835;28;20224;-77
2022/04/05 10:50:59;;;;;;;2.37;2.00;;;;;;;;;;5087927;28;20183;-76
2022/04/05 10:53:37;;;;;;;1.63;1.53;;;;;;;;;;5098139;28;20219;-76
2022/04/05 10:56:11;;;;;;;3.50;2.27;;;;;;;;;;5090929;28;20176;-76
2022/04/05 10:58:38;;;;;;;2.50;2.00;;;;;;;;;;5082676;28;20194;-76
2022/04/05 11:01:17;;;;;;;2.07;1.83;;;;;;;;;;5093950;28;20191;-76
2022/04/05 11:04:02;;;;;;;1.80;1.70;;;;;;;;;;5088437;28;20221;-76
2022/04/05 11:06:28;;;;;;;2.20;1.90;;;;;;;;;;5086535;28;20187;-76
2022/04/05 11:08:53;;;;;;;2.87;1.90;;;;;;;;;;5089150;28;20194;-76
2022/04/05 11:11:18;;;;;;;1.90;1.70;;;;;;;;;;5094870;28;20179;-76
2022/04/05 11:13:46;;;;;;;1.97;1.80;;;;;;;;;;5092847;28;20195;-76
2022/04/05 11:16:12;;;;;;;2.43;2.10;;;;;;;;;;5094269;28;20262;-76
2022/04/05 11:18:38;;;;;;;2.50;1.97;;;;;;;;;;5096138;27;20224;-76
2022/04/05 11:21:06;;;;;;;2.20;2.00;;;;;;;;;;5087769;28;20191;-76
2022/04/05 11:23:48;;;;;;;2.30;2.10;;;;;;;;;;5087104;28;20169;-76
2022/04/05 11:26:26;;;;;;;2.13;1.90;;;;;;;;;;5094030;28;20173;-76
2022/04/05 11:28:51;;;;;;;1.80;1.70;;;;;;;;;;5088937;28;20179;-76
2022/04/05 11:31:48;;;;;;;1.80;1.70;;;;;;;;;;5091365;28;20177;-76
2022/04/05 11:34:46;;;;;;;1.80;1.70;;;;;;;;;;5072757;28;20213;-76
2022/04/05 11:37:11;;;;;;;2.97;2.67;;;;;;;;;;5095046;28;20184;-76
2022/04/05 11:39:40;;;;;;;1.93;1.73;;;;;;;;;;5088369;28;20191;-76
2022/04/05 11:42:05;;;;;;;2.27;1.80;;;;;;;;;;5092170;28;20178;-76
2022/04/05 11:44:31;;;;;;;2.37;2.17;;;;;;;;;;5085363;28;20199;-76
2022/04/05 11:46:57;;;;;;;2.00;1.80;;;;;;;;;;5092124;28;20185;-76
2022/04/05 11:49:23;;;;;;;1.77;1.67;;;;;;;;;;5087279;28;20819;-76
2022/04/05 11:51:49;;;;;;;2.00;1.77;;;;;;;;;;5080754;28;20192;-76
2022/04/05 11:54:18;;;;;;;1.77;1.67;;;;;;;;;;5088460;28;20203;-76
2022/04/05 11:56:44;;;;;;;1.40;1.30;;;;;;;;;;5091626;28;20234;-76
2022/04/05 11:59:11;;;;;;;2.10;1.90;;;;;;;;;;5091932;28;20270;-76
2022/04/05 12:01:39;;;;;;;1.53;1.43;;;;;;;;;;5082514;28;20178;-76
2022/04/05 12:04:05;;;;;;;1.40;1.30;;;;;;;;;;5101698;28;20254;-76
2022/04/05 12:06:34;;;;;;;1.70;1.60;;;;;;;;;;5078937;28;20186;-75
2022/04/05 12:09:04;;;;;;;1.90;1.73;;;;;;;;;;5085794;28;20215;-75
2022/04/05 12:11:30;;;;;;;1.33;1.23;;;;;;;;;;5087744;28;20237;-75
2022/04/05 12:14:00;;;;;;;1.70;1.33;;;;;;;;;;5086523;28;20203;-75
2022/04/05 12:16:26;;;;;;;1.60;1.50;;;;;;;;;;5084857;28;20319;-75
2022/04/05 12:18:52;;;;;;;1.20;1.13;;;;;;;;;;5087730;28;20183;-75
2022/04/05 12:21:18;;;;;;;1.40;1.30;;;;;;;;;;5086848;28;20175;-75
2022/04/05 12:23:44;;;;;;;1.50;1.40;;;;;;;;;;5082236;28;20208;-75
2022/04/05 12:26:11;;;;;;;1.20;1.20;;;;;;;;;;5083282;28;20212;-75
2022/04/05 12:28:37;;;;;;;1.50;1.40;;;;;;;;;;5091671;28;20244;-75
2022/04/05 12:31:06;;;;;;;3.50;1.43;;;;;;;;;;5089150;28;20206;-75
2022/04/05 12:33:32;;;;;;;1.33;1.23;;;;;;;;;;5071500;28;20316;-75
2022/04/05 12:35:57;;;;;;;1.70;1.50;;;;;;;;;;5083403;28;20269;-75
2022/04/05 12:38:22;;;;;;;2.03;1.70;;;;;;;;;;5079797;28;20261;-75
2022/04/05 12:40:47;;;;;;;1.60;1.50;;;;;;;;;;5082692;28;20176;-75
2022/04/05 12:43:13;;;;;;;1.93;1.50;;;;;;;;;;5087962;28;20215;-75
2022/04/05 12:45:39;;;;;;;1.60;1.50;;;;;;;;;;5083422;28;20200;-75
2022/04/05 12:48:11;;;;;;;1.67;1.57;;;;;;;;;;5082113;28;20217;-75
2022/04/05 12:50:49;;;;;;;2.10;1.53;;;;;;;;;;5083376;28;20181;-75
2022/04/05 12:53:22;;;;;;;2.63;1.47;;;;;;;;;;5088709;28;20191;-75
2022/04/05 12:56:00;;;;;;;1.83;1.73;;;;;;;;;;5089609;28;20179;-75
2022/04/05 12:58:32;;;;;;;2.00;1.80;;;;;;;;;;5080132;28;20173;-75
2022/04/05 13:00:57;;;;;;;3.10;2.63;;;;;;;;;;5084598;28;20177;-75
2022/04/05 13:03:29;;;;;;;1.93;1.73;;;;;;;;;;5080163;28;20270;-75
2022/04/05 13:08:41;;;;;;;1.87;1.73;;;;;;;;;;5081329;28;20175;-75
2022/04/05 13:11:23;;;;;;;1.47;1.37;;;;;;;;;;5089738;28;20177;-75
2022/04/05 13:13:48;;;;;;;1.87;1.67;;;;;;;;;;5085313;28;20291;-75
2022/04/05 13:16:15;;;;;;;3.40;2.57;;;;;;;;;;5095101;28;20314;-75
2022/04/05 13:18:48;;;;;;;5.90;3.70;;;;;;;;;;5093697;28;20224;-75
2022/04/05 13:21:17;;;;;;;9.90;8.37;;;;;;;;;;5079408;28;20259;-75
2022/04/05 13:23:57;;;;;;;9.67;8.67;;;;;;;;;;5086117;28;20188;-75
2022/04/05 13:26:23;;;;;;;3.43;2.63;;;;;;;;;;5086344;28;20191;-75
2022/04/05 13:28:49;;;;;;;3.73;2.50;;;;;;;;;;5086764;28;20176;-74
2022/04/05 13:31:17;;;;;;;3.93;3.53;;;;;;;;;;5086345;28;20250;-75
2022/04/05 13:33:44;;;;;;;7.73;6.17;;;;;;;;;;5085694;28;20200;-75
2022/04/05 13:36:09;;;;;;;2.30;2.00;;;;;;;;;;5092749;28;20229;-75
2022/04/05 13:38:35;;;;;;;1.70;1.60;;;;;;;;;;5083161;28;20198;-76
2022/04/05 13:41:00;;;;;;;2.53;1.30;;;;;;;;;;5091515;28;20186;-75
2022/04/05 13:43:26;;;;;;;1.97;1.50;;;;;;;;;;5084916;28;20176;-75
2022/04/05 13:45:51;;;;;;;1.90;1.80;;;;;;;;;;5088054;28;20268;-75
2022/04/05 13:48:16;;;;;;;1.50;1.40;;;;;;;;;;5086978;28;20173;-75
2022/04/05 13:50:42;;;;;;;9.87;4.93;;;;;;;;;;5089299;28;20181;-75
2022/04/05 13:53:07;;;;;;;69.67;32.63;;;;;;;;;;5094459;28;20216;-75
2022/04/05 13:55:32;;;;;;;52.93;23.73;;;;;;;;;;5088071;28;20177;-75
2022/04/05 13:57:58;;;;;;;80.73;33.33;;;;;;;;;;5094696;28;20202;-75
2022/04/05 14:00:23;;;;;;;25.70;14.10;;;;;;;;;;5089715;28;20181;-75
2022/04/05 14:02:48;;;;;;;16.40;9.40;;;;;;;;;;5095002;28;20184;-75
2022/04/05 14:05:16;;;;;;;25.57;14.57;;;;;;;;;;5088305;28;20212;-75
2022/04/05 14:07:42;;;;;;;10.40;8.53;;;;;;;;;;5088112;28;20181;-75
2022/04/05 14:10:07;;;;;;;8.17;7.33;;;;;;;;;;5083465;28;20192;-75
2022/04/05 14:12:33;;;;;;;4.10;3.70;;;;;;;;;;5091027;28;20209;-75
2022/04/05 14:15:00;;;;;;;8.70;7.90;;;;;;;;;;5084476;28;20205;-75
2022/04/05 14:17:25;;;;;;;15.47;10.53;;;;;;;;;;5095586;28;20232;-75
2022/04/05 14:19:51;;;;;;;6.23;5.33;;;;;;;;;;5083527;28;20165;-75
2022/04/05 14:22:16;;;;;;;3.43;2.77;;;;;;;;;;5086624;28;20171;-75
2022/04/05 14:24:42;;;;;;;3.83;3.27;;;;;;;;;;5087999;28;20248;-75
2022/04/05 14:27:07;;;;;;;2.37;2.00;;;;;;;;;;5094366;28;20179;-75
2022/04/05 14:29:33;;;;;;;2.90;2.30;;;;;;;;;;5083918;28;20184;-75
2022/04/05 14:32:00;;;;;;;2.97;2.70;;;;;;;;;;5091858;28;20177;-75
2022/04/05 14:34:25;;;;;;;4.00;3.27;;;;;;;;;;5089171;28;20224;-75
2022/04/05 14:36:50;;;;;;;4.70;3.10;;;;;;;;;;5089378;28;20204;-74
2022/04/05 14:39:15;;;;;;;3.67;2.80;;;;;;;;;;5090586;28;20196;-75
2022/04/05 14:41:41;;;;;;;2.63;2.00;;;;;;;;;;5092790;28;20176;-75